createdAt,value
2023-02-26T00:00:00.184Z,1
2023-02-26T00:04:00.188Z,1
2023-02-26T00:08:00.170Z,1
2023-02-26T00:12:00.206Z,1
2023-02-26T00:16:00.192Z,0
2023-02-26T00:20:00.205Z,0
2023-02-26T00:24:00.178Z,1
2023-02-26T00:28:00.191Z,1
2023-02-26T00:32:00.373Z,1
2023-02-26T00:36:00.209Z,1
2023-02-26T00:40:00.205Z,1
2023-02-26T00:44:00.199Z,0
2023-02-26T00:48:00.242Z,0
2023-02-26T00:52:00.189Z,1
2023-02-26T00:56:00.186Z,1
2023-02-26T01:00:00.213Z,1
2023-02-26T01:04:00.318Z,0
2023-02-26T01:08:00.201Z,0
2023-02-26T01:12:00.187Z,0
2023-02-26T01:16:00.324Z,0
2023-02-26T01:20:00.192Z,1
2023-02-26T01:24:00.205Z,0
2023-02-26T01:28:00.189Z,0
2023-02-26T01:32:00.430Z,0
2023-02-26T01:36:00.175Z,0
2023-02-26T01:40:00.191Z,1
2023-02-26T01:44:00.212Z,0
2023-02-26T01:48:00.191Z,0
2023-02-26T01:52:00.197Z,0
2023-02-26T01:56:00.230Z,1
2023-02-26T02:00:00.202Z,0
2023-02-26T02:04:00.225Z,0
2023-02-26T02:08:00.219Z,0
2023-02-26T02:12:00.184Z,1
2023-02-26T02:16:00.276Z,0
2023-02-26T02:20:00.199Z,0
2023-02-26T02:24:00.226Z,0
2023-02-26T02:28:00.190Z,0
2023-02-26T02:32:00.365Z,0
2023-02-26T02:36:00.191Z,0
2023-02-26T02:40:00.470Z,0
2023-02-26T02:44:00.185Z,1
2023-02-26T02:48:00.208Z,0
2023-02-26T02:52:00.200Z,0
2023-02-26T02:56:00.215Z,0
2023-02-26T03:00:00.206Z,1
2023-02-26T03:04:00.209Z,0
2023-02-26T03:08:00.223Z,0
2023-02-26T03:12:00.205Z,0
2023-02-26T03:16:00.658Z,0
2023-02-26T03:20:00.211Z,0
2023-02-26T03:24:00.186Z,0
2023-02-26T03:28:00.192Z,1
2023-02-26T03:32:00.404Z,0
2023-02-26T03:36:00.200Z,1
2023-02-26T03:40:00.206Z,0
2023-02-26T03:44:00.183Z,0
2023-02-26T03:48:00.207Z,0
2023-02-26T03:52:00.209Z,0
2023-02-26T03:56:00.192Z,0
2023-02-26T04:00:00.233Z,0
2023-02-26T04:04:00.294Z,0
2023-02-26T04:08:00.215Z,0
2023-02-26T04:12:00.228Z,0
2023-02-26T04:16:00.232Z,0
2023-02-26T04:20:00.232Z,0
2023-02-26T04:24:00.228Z,0
2023-02-26T04:28:00.214Z,0
2023-02-26T04:32:00.345Z,0
2023-02-26T04:36:00.219Z,0
2023-02-26T04:40:00.214Z,0
2023-02-26T04:44:00.199Z,0
2023-02-26T04:48:00.195Z,0
2023-02-26T04:52:00.246Z,0
2023-02-26T04:56:00.190Z,0
2023-02-26T05:00:00.189Z,0
2023-02-26T05:04:00.212Z,0
2023-02-26T05:08:00.202Z,0
2023-02-26T05:12:00.217Z,0
2023-02-26T05:16:00.230Z,0
2023-02-26T05:20:00.201Z,0
2023-02-26T05:24:00.193Z,0
2023-02-26T05:28:00.192Z,0
2023-02-26T05:32:00.255Z,0
2023-02-26T05:36:00.185Z,0
2023-02-26T05:40:00.255Z,0
2023-02-26T05:44:00.202Z,0
2023-02-26T05:48:00.206Z,0
2023-02-26T05:52:00.202Z,0
2023-02-26T05:56:00.215Z,0
2023-02-26T06:00:00.239Z,0
2023-02-26T06:04:00.180Z,0
2023-02-26T06:08:00.207Z,0
2023-02-26T06:12:00.206Z,0
2023-02-26T06:16:00.269Z,0
2023-02-26T06:20:00.215Z,0
2023-02-26T06:24:00.262Z,0
2023-02-26T06:28:00.199Z,0
2023-02-26T06:32:00.347Z,0
2023-02-26T06:36:00.236Z,0
2023-02-26T06:40:00.207Z,0
2023-02-26T06:44:00.203Z,0
2023-02-26T06:48:00.224Z,0
2023-02-26T06:52:00.214Z,0
2023-02-26T06:56:00.198Z,0
2023-02-26T07:00:00.309Z,0
2023-02-26T07:04:00.208Z,0
2023-02-26T07:08:00.205Z,0
2023-02-26T07:12:00.218Z,0
2023-02-26T07:16:00.216Z,0
2023-02-26T07:20:00.182Z,0
2023-02-26T07:24:00.219Z,0
2023-02-26T07:28:00.278Z,0
2023-02-26T07:32:00.295Z,0
2023-02-26T07:36:00.212Z,0
2023-02-26T07:40:00.240Z,0
2023-02-26T07:44:00.214Z,1
2023-02-26T07:48:00.197Z,0
2023-02-26T07:52:00.197Z,0
2023-02-26T07:56:00.199Z,0
2023-02-26T08:00:00.216Z,0
2023-02-26T08:04:00.272Z,0
2023-02-26T08:08:00.186Z,0
2023-02-26T08:12:00.187Z,0
2023-02-26T08:16:00.250Z,0
2023-02-26T08:20:00.212Z,0
2023-02-26T08:24:00.206Z,0
2023-02-26T08:28:00.189Z,0
2023-02-26T08:32:00.303Z,0
2023-02-26T08:36:00.180Z,0
2023-02-26T08:40:00.231Z,0
2023-02-26T08:44:00.200Z,1
2023-02-26T08:48:00.218Z,1
2023-02-26T08:52:00.220Z,2
2023-02-26T08:56:00.193Z,0
2023-02-26T09:00:00.209Z,1
2023-02-26T09:04:00.222Z,1
2023-02-26T09:08:00.198Z,1
2023-02-26T09:12:00.223Z,1
2023-02-26T09:16:00.284Z,0
2023-02-26T09:20:00.229Z,0
2023-02-26T09:24:00.205Z,0
2023-02-26T09:28:00.286Z,0
2023-02-26T09:32:00.439Z,0
2023-02-26T09:36:00.195Z,0
2023-02-26T09:40:00.243Z,0
2023-02-26T09:44:00.203Z,0
2023-02-26T09:48:00.192Z,0
2023-02-26T09:52:00.196Z,0
2023-02-26T09:56:00.209Z,0
2023-02-26T10:00:00.219Z,0
2023-02-26T10:04:00.279Z,0
2023-02-26T10:08:00.227Z,0
2023-02-26T10:12:00.226Z,0
2023-02-26T10:16:00.212Z,0
2023-02-26T10:20:00.216Z,0
2023-02-26T10:24:00.215Z,0
2023-02-26T10:28:00.209Z,0
2023-02-26T10:32:00.350Z,0
2023-02-26T10:36:00.202Z,0
2023-02-26T10:40:00.194Z,0
2023-02-26T10:44:00.209Z,0
2023-02-26T10:48:00.167Z,0
2023-02-26T10:52:00.228Z,0
2023-02-26T10:56:00.204Z,0
2023-02-26T11:00:00.216Z,0
2023-02-26T11:04:00.220Z,0
2023-02-26T11:08:00.223Z,0
2023-02-26T11:12:00.234Z,0
2023-02-26T11:16:00.264Z,0
2023-02-26T11:20:00.196Z,0
2023-02-26T11:24:00.209Z,1
2023-02-26T11:28:00.231Z,0
2023-02-26T11:32:00.296Z,0
2023-02-26T11:36:00.205Z,0
2023-02-26T11:40:00.219Z,1
2023-02-26T11:44:00.215Z,0
2023-02-26T11:48:00.238Z,0
2023-02-26T11:52:00.234Z,0
2023-02-26T11:56:00.222Z,0
2023-02-26T12:00:00.281Z,0
2023-02-26T12:04:00.225Z,0
2023-02-26T12:08:00.214Z,0
2023-02-26T12:12:00.213Z,0
2023-02-26T12:16:00.382Z,0
2023-02-26T12:20:00.231Z,0
2023-02-26T12:24:00.211Z,0
2023-02-26T12:28:00.188Z,0
2023-02-26T12:32:00.314Z,0
2023-02-26T12:36:00.217Z,0
2023-02-26T12:40:00.259Z,0
2023-02-26T12:44:00.223Z,0
2023-02-26T12:48:00.194Z,0
2023-02-26T12:52:00.219Z,0
2023-02-26T12:56:00.230Z,0
2023-02-26T13:00:00.244Z,0
2023-02-26T13:04:00.278Z,0
2023-02-26T13:08:00.206Z,0
2023-02-26T13:12:00.212Z,0
2023-02-26T13:16:00.285Z,0
2023-02-26T13:20:00.208Z,0
2023-02-26T13:24:00.196Z,0
2023-02-26T13:28:00.204Z,0
2023-02-26T13:32:00.370Z,0
2023-02-26T13:36:00.214Z,0
2023-02-26T13:40:00.198Z,0
2023-02-26T13:44:00.208Z,0
2023-02-26T13:48:00.300Z,0
2023-02-26T13:52:00.215Z,0
2023-02-26T13:56:00.220Z,0
2023-02-26T14:00:00.198Z,0
2023-02-26T14:04:00.310Z,0
2023-02-26T14:08:00.211Z,0
2023-02-26T14:12:01.255Z,0
2023-02-26T14:16:00.201Z,0
2023-02-26T14:20:00.213Z,0
2023-02-26T14:24:00.197Z,0
2023-02-26T14:28:00.218Z,0
2023-02-26T14:32:00.349Z,0
2023-02-26T14:36:00.204Z,1
2023-02-26T14:40:00.210Z,1
2023-02-26T14:44:00.208Z,0
2023-02-26T14:48:00.215Z,1
2023-02-26T14:52:00.210Z,0
2023-02-26T14:56:00.232Z,0
2023-02-26T15:00:00.223Z,1
2023-02-26T15:04:00.232Z,0
2023-02-26T15:08:00.195Z,0
2023-02-26T15:12:01.261Z,0
2023-02-26T15:16:00.262Z,1
2023-02-26T15:20:00.231Z,1
2023-02-26T15:24:00.215Z,1
2023-02-26T15:28:00.195Z,1
2023-02-26T15:32:00.414Z,1
2023-02-26T15:36:00.234Z,0
2023-02-26T15:40:00.303Z,1
2023-02-26T15:44:00.217Z,1
2023-02-26T15:48:00.229Z,0
2023-02-26T15:52:00.218Z,1
2023-02-26T15:56:00.203Z,0
2023-02-26T16:00:00.306Z,1
2023-02-26T16:04:00.233Z,1
2023-02-26T16:08:00.204Z,0
2023-02-26T16:12:00.241Z,1
2023-02-26T16:16:00.309Z,1
2023-02-26T16:20:00.214Z,1
2023-02-26T16:24:00.258Z,1
2023-02-26T16:28:00.191Z,1
2023-02-26T16:32:00.383Z,1
2023-02-26T16:36:00.201Z,1
2023-02-26T16:40:00.183Z,2
2023-02-26T16:44:00.201Z,3
2023-02-26T16:48:00.209Z,2
2023-02-26T16:52:00.212Z,6
2023-02-26T16:56:00.258Z,3
2023-02-26T17:00:00.239Z,2
2023-02-26T17:04:00.233Z,3
2023-02-26T17:08:00.240Z,4
2023-02-26T17:12:00.214Z,3
2023-02-26T17:16:00.218Z,3
2023-02-26T17:20:00.216Z,3
2023-02-26T17:24:00.182Z,4
2023-02-26T17:28:00.195Z,3
2023-02-26T17:32:00.353Z,3
2023-02-26T17:36:00.211Z,3
2023-02-26T17:40:00.226Z,3
2023-02-26T17:44:00.216Z,5
2023-02-26T17:48:00.205Z,6
2023-02-26T17:52:00.214Z,4
2023-02-26T17:56:00.207Z,5
2023-02-26T18:00:00.254Z,7
2023-02-26T18:04:00.435Z,5
2023-02-26T18:08:00.190Z,3
2023-02-26T18:12:00.224Z,2
2023-02-26T18:16:00.206Z,3
2023-02-26T18:20:00.208Z,3
2023-02-26T18:24:00.193Z,3
2023-02-26T18:28:00.335Z,3
2023-02-26T18:32:00.583Z,3
2023-02-26T18:36:00.208Z,4
2023-02-26T18:40:00.260Z,4
2023-02-26T18:44:00.202Z,3
2023-02-26T18:48:00.213Z,2
2023-02-26T18:52:00.201Z,2
2023-02-26T18:56:00.241Z,2
2023-02-26T19:00:00.211Z,1
2023-02-26T19:04:00.197Z,2
2023-02-26T19:08:00.230Z,4
2023-02-26T19:12:00.192Z,5
2023-02-26T19:16:00.332Z,4
2023-02-26T19:20:00.233Z,4
2023-02-26T19:24:00.217Z,4
2023-02-26T19:28:00.229Z,4
2023-02-26T19:32:00.382Z,4
2023-02-26T19:36:00.224Z,4
2023-02-26T19:40:00.211Z,8
2023-02-26T19:44:00.199Z,11
2023-02-26T19:48:00.217Z,10
2023-02-26T19:52:00.221Z,9
2023-02-26T19:56:00.174Z,6
2023-02-26T20:00:00.242Z,7
2023-02-26T20:04:00.221Z,6
2023-02-26T20:08:00.207Z,5
2023-02-26T20:12:00.181Z,9
2023-02-26T20:16:00.325Z,7
2023-02-26T20:20:00.200Z,7
2023-02-26T20:24:00.203Z,8
2023-02-26T20:28:00.230Z,12
2023-02-26T20:32:00.445Z,6
2023-02-26T20:36:00.210Z,6
2023-02-26T20:40:00.217Z,5
2023-02-26T20:44:00.215Z,5
2023-02-26T20:48:00.226Z,4
2023-02-26T20:52:00.218Z,4
2023-02-26T20:56:00.248Z,3
2023-02-26T21:00:00.216Z,4
2023-02-26T21:04:00.207Z,4
2023-02-26T21:08:00.175Z,4
2023-02-26T21:12:00.217Z,3
2023-02-26T21:16:00.300Z,4
2023-02-26T21:20:00.210Z,3
2023-02-26T21:24:00.220Z,3
2023-02-26T21:28:00.218Z,3
2023-02-26T21:32:00.366Z,5
2023-02-26T21:36:00.253Z,5
2023-02-26T21:40:00.208Z,6
2023-02-26T21:44:00.227Z,24
2023-02-26T21:48:00.194Z,19
2023-02-26T21:52:00.211Z,14
2023-02-26T21:56:00.225Z,9
2023-02-26T22:00:00.247Z,8
2023-02-26T22:04:00.220Z,9
2023-02-26T22:08:00.185Z,9
2023-02-26T22:12:00.232Z,9
2023-02-26T22:16:00.193Z,9
2023-02-26T22:20:00.242Z,10
2023-02-26T22:24:00.206Z,10
2023-02-26T22:28:00.221Z,10
2023-02-26T22:32:00.374Z,8
2023-02-26T22:36:00.222Z,10
2023-02-26T22:40:00.242Z,11
2023-02-26T22:44:00.237Z,9
2023-02-26T22:48:00.210Z,9
2023-02-26T22:52:00.240Z,7
2023-02-26T22:56:00.221Z,8
2023-02-26T23:00:00.297Z,7
2023-02-26T23:04:00.335Z,7
2023-02-26T23:08:00.219Z,6
2023-02-26T23:12:00.233Z,6
2023-02-26T23:16:00.265Z,6
2023-02-26T23:20:00.228Z,6
2023-02-26T23:24:00.244Z,5
2023-02-26T23:28:00.517Z,6
2023-02-26T23:32:00.326Z,5
2023-02-26T23:36:00.233Z,6
2023-02-26T23:40:00.202Z,5
2023-02-26T23:44:00.228Z,5
2023-02-26T23:48:00.218Z,5
2023-02-26T23:52:00.229Z,5
2023-02-26T23:56:00.198Z,5
